Time;durP1;ratioP1;P1;durP2;ratioP2;P2;SDS_P1;SDS_P2;PMS_P1;PMS_P2;Temp;Humidity;BMP_temperature;BMP_pressure;BME280_temperature;BME280_humidity;BME280_pressure;Samples;Min_cycle;Max_cycle;Signal;HPM_P1;HPM_P2
2021/03/30 00:01:18;;;;;;;4.80;2.30;;;6.10;99.90;;;;;;5081561;28;20723;-74
2021/03/30 00:03:44;;;;;;;2.67;1.77;;;6.00;99.90;;;;;;5079421;28;20206;-72
2021/03/30 00:06:11;;;;;;;1.57;1.23;;;6.00;99.90;;;;;;5082198;28;20231;-72
2021/03/30 00:08:37;;;;;;;1.80;1.70;;;5.90;99.90;;;;;;5079607;28;20496;-73
2021/03/30 00:11:03;;;;;;;5.37;2.00;;;5.90;99.90;;;;;;5080776;28;20446;-72
2021/03/30 00:13:29;;;;;;;4.60;2.17;;;5.90;99.90;;;;;;5079810;28;20456;-71
2021/03/30 00:15:54;;;;;;;1.77;1.57;;;5.80;99.90;;;;;;5081545;28;20568;-71
2021/03/30 00:18:20;;;;;;;1.60;1.50;;;5.80;99.90;;;;;;5081081;28;20549;-74
2021/03/30 00:20:46;;;;;;;5.23;1.67;;;5.80;99.90;;;;;;5079806;28;20182;-71
2021/03/30 00:23:11;;;;;;;2.83;1.87;;;5.80;99.90;;;;;;5080308;28;20201;-72
2021/03/30 00:25:37;;;;;;;2.80;1.87;;;5.70;99.90;;;;;;5081205;28;20226;-72
2021/03/30 00:28:03;;;;;;;2.90;1.77;;;5.70;99.90;;;;;;5082697;28;20651;-72
2021/03/30 00:30:28;;;;;;;1.43;1.33;;;5.70;99.90;;;;;;5083520;28;20185;-71
2021/03/30 00:32:54;;;;;;;4.50;2.10;;;5.70;99.90;;;;;;5083787;28;20446;-72
2021/03/30 00:35:19;;;;;;;1.80;1.63;;;5.60;99.90;;;;;;5083202;28;20269;-72
2021/03/30 00:37:45;;;;;;;3.60;1.80;;;5.60;99.90;;;;;;5085165;28;20176;-72
2021/03/30 00:40:12;;;;;;;2.30;1.67;;;5.60;99.90;;;;;;5082065;28;20281;-75
2021/03/30 00:42:38;;;;;;;1.63;1.50;;;5.60;99.90;;;;;;5084191;28;20681;-72
2021/03/30 00:45:05;;;;;;;7.87;2.10;;;5.60;99.90;;;;;;5079997;28;20437;-74
2021/03/30 00:47:33;;;;;;;3.27;2.03;;;5.50;99.90;;;;;;5080808;28;20858;-72
2021/03/30 00:49:59;;;;;;;2.47;1.83;;;5.50;99.90;;;;;;5084314;28;20479;-72
2021/03/30 00:52:26;;;;;;;3.80;1.80;;;5.40;99.90;;;;;;5083157;28;20562;-71
2021/03/30 00:54:52;;;;;;;13.23;2.13;;;5.40;99.90;;;;;;5082389;28;20867;-72
2021/03/30 00:57:18;;;;;;;1.97;1.77;;;5.30;99.90;;;;;;5081337;28;20526;-71
2021/03/30 00:59:45;;;;;;;2.50;2.00;;;5.30;99.90;;;;;;5082911;28;20477;-72
2021/03/30 01:02:11;;;;;;;4.00;2.23;;;5.40;99.90;;;;;;5081265;28;20460;-72
2021/03/30 01:04:36;;;;;;;2.63;2.17;;;5.30;99.90;;;;;;5083210;28;20933;-72
2021/03/30 01:07:03;;;;;;;5.50;2.27;;;5.20;99.90;;;;;;5082893;28;20493;-72
2021/03/30 01:09:55;;;;;;;3.70;2.53;;;5.20;99.90;;;;;;5085186;28;20227;-72
2021/03/30 01:12:23;;;;;;;3.43;2.17;;;5.10;99.90;;;;;;5081551;28;20439;-72
2021/03/30 01:14:55;;;;;;;6.57;2.20;;;5.10;99.90;;;;;;5078145;28;20420;-71
2021/03/30 01:17:59;;;;;;;1.83;1.70;;;5.10;99.90;;;;;;5082752;28;20446;-71
2021/03/30 01:20:50;;;;;;;5.73;2.50;;;5.00;99.90;;;;;;5074563;28;20421;-71
2021/03/30 01:23:41;;;;;;;4.37;2.60;;;5.00;99.90;;;;;;5082299;28;20517;-72
2021/03/30 01:26:24;;;;;;;5.57;2.57;;;4.90;99.90;;;;;;5083578;28;20443;-72
2021/03/30 01:29:15;;;;;;;4.70;2.30;;;4.90;99.90;;;;;;5082582;28;20838;-72
2021/03/30 01:31:45;;;;;;;3.80;1.90;;;4.90;99.90;;;;;;5081370;28;20427;-72
2021/03/30 01:34:13;;;;;;;7.93;2.40;;;4.90;99.90;;;;;;5083762;28;20464;-73
2021/03/30 01:36:41;;;;;;;3.40;2.73;;;4.90;99.90;;;;;;5082576;28;20476;-72
2021/03/30 01:39:09;;;;;;;3.43;2.00;;;4.80;99.90;;;;;;5082343;28;20449;-74
2021/03/30 01:41:36;;;;;;;10.30;2.87;;;4.80;99.90;;;;;;5082539;28;20436;-74
2021/03/30 01:44:04;;;;;;;6.53;2.80;;;4.70;99.90;;;;;;5082652;28;20979;-72
2021/03/30 01:46:31;;;;;;;3.97;2.17;;;4.70;99.90;;;;;;5081792;28;20456;-71
2021/03/30 01:48:57;;;;;;;4.57;2.30;;;4.70;99.90;;;;;;5083605;28;20425;-72
2021/03/30 01:51:24;;;;;;;3.43;2.17;;;4.60;99.90;;;;;;5082477;28;20481;-72
2021/03/30 01:53:50;;;;;;;3.63;2.27;;;4.60;99.90;;;;;;5083578;28;20528;-72
2021/03/30 01:56:17;;;;;;;10.13;2.77;;;4.50;99.90;;;;;;5082679;28;21278;-72
2021/03/30 01:58:43;;;;;;;5.63;2.50;;;4.50;99.90;;;;;;5081440;28;20498;-72
2021/03/30 02:01:12;;;;;;;13.40;3.00;;;4.50;99.90;;;;;;5077906;28;20445;-71
2021/03/30 02:03:40;;;;;;;4.43;2.67;;;4.50;99.90;;;;;;5083431;28;20463;-74
2021/03/30 02:06:06;;;;;;;3.27;2.70;;;4.40;99.90;;;;;;5079144;28;20499;-72
2021/03/30 02:08:33;;;;;;;6.50;2.70;;;4.40;99.90;;;;;;5086631;28;20439;-72
2021/03/30 02:10:59;;;;;;;10.00;2.67;;;4.50;99.90;;;;;;5081417;28;20416;-73
2021/03/30 02:13:52;;;;;;;7.93;2.50;;;4.40;99.90;;;;;;5081898;28;20960;-71
2021/03/30 02:16:19;;;;;;;2.97;2.67;;;4.40;99.90;;;;;;5080433;28;20714;-72
2021/03/30 02:19:08;;;;;;;3.97;2.23;;;4.30;99.90;;;;;;5080987;28;20941;-73
2021/03/30 02:21:38;;;;;;;2.40;2.10;;;4.30;99.90;;;;;;5080673;28;20482;-72
2021/03/30 02:24:10;;;;;;;8.37;2.40;;;4.30;99.90;;;;;;5084185;28;20660;-73
2021/03/30 02:26:37;;;;;;;4.33;2.60;;;4.30;99.90;;;;;;5083754;28;20395;-74
2021/03/30 02:29:07;;;;;;;5.03;2.57;;;4.20;99.90;;;;;;5080236;28;20901;-72
2021/03/30 02:31:35;;;;;;;3.40;2.50;;;4.20;99.90;;;;;;5083551;28;20435;-71
2021/03/30 02:34:05;;;;;;;3.73;3.40;;;4.20;99.90;;;;;;5077494;28;20471;-71
2021/03/30 02:36:32;;;;;;;8.70;2.67;;;4.20;99.90;;;;;;5082774;28;20479;-71
2021/03/30 02:39:06;;;;;;;7.00;3.40;;;4.20;99.90;;;;;;5081607;28;20444;-73
2021/03/30 02:41:33;;;;;;;6.93;3.53;;;4.10;99.90;;;;;;5084152;28;20494;-72
2021/03/30 02:44:00;;;;;;;8.33;2.90;;;4.10;99.90;;;;;;5077477;28;20458;-72
2021/03/30 02:46:26;;;;;;;3.80;2.60;;;4.10;99.90;;;;;;5082004;28;20851;-73
2021/03/30 02:48:53;;;;;;;7.90;2.80;;;4.10;99.90;;;;;;5080739;28;20426;-72
2021/03/30 02:51:23;;;;;;;5.73;2.90;;;4.10;99.90;;;;;;5076021;28;20489;-73
2021/03/30 02:53:49;;;;;;;4.00;2.70;;;4.00;99.90;;;;;;5081262;28;20460;-72
2021/03/30 02:56:15;;;;;;;2.90;2.70;;;4.10;99.90;;;;;;5080330;28;20472;-72
2021/03/30 02:58:41;;;;;;;6.20;3.23;;;4.00;99.90;;;;;;5079821;28;20420;-72
2021/03/30 03:01:08;;;;;;;8.63;3.00;;;4.00;99.90;;;;;;5075475;28;20402;-73
2021/03/30 03:03:34;;;;;;;6.03;2.80;;;3.90;99.90;;;;;;5082863;28;20454;-72
2021/03/30 03:06:01;;;;;;;5.10;3.20;;;3.90;99.90;;;;;;5080070;28;20455;-73
2021/03/30 03:08:29;;;;;;;6.23;3.10;;;3.90;99.90;;;;;;5081804;28;20429;-72
2021/03/30 03:10:55;;;;;;;9.07;3.47;;;3.80;99.90;;;;;;5074727;28;20480;-73
2021/03/30 03:13:24;;;;;;;3.50;3.20;;;3.80;99.90;;;;;;5079854;28;20503;-72
2021/03/30 03:15:50;;;;;;;4.20;2.97;;;3.70;99.90;;;;;;5079752;28;20471;-72
2021/03/30 03:18:16;;;;;;;3.03;2.47;;;3.70;99.90;;;;;;5082431;28;20442;-72
2021/03/30 03:20:46;;;;;;;4.57;2.73;;;3.70;99.90;;;;;;5079186;28;20526;-72
2021/03/30 03:23:13;;;;;;;7.77;3.23;;;3.70;99.90;;;;;;5084092;28;20470;-72
2021/03/30 03:25:38;;;;;;;4.50;3.27;;;3.70;99.90;;;;;;5080012;28;20786;-72
2021/03/30 03:28:04;;;;;;;3.37;2.50;;;3.70;99.90;;;;;;5077741;28;20430;-72
2021/03/30 03:30:31;;;;;;;7.53;3.00;;;3.70;99.90;;;;;;5080416;28;20707;-72
2021/03/30 03:33:08;;;;;;;5.57;3.10;;;3.60;99.90;;;;;;5080622;28;20213;-72
2021/03/30 03:35:34;;;;;;;4.07;2.77;;;3.60;99.90;;;;;;5079441;28;20459;-73
2021/03/30 03:38:02;;;;;;;3.37;3.07;;;3.60;99.90;;;;;;5082133;28;20447;-72
2021/03/30 03:40:28;;;;;;;3.03;2.60;;;3.50;99.90;;;;;;5080466;28;20791;-73
2021/03/30 03:42:54;;;;;;;8.53;3.50;;;3.50;99.90;;;;;;5081124;28;20466;-72
2021/03/30 03:45:19;;;;;;;15.23;3.60;;;3.50;99.90;;;;;;5079056;28;20433;-72
2021/03/30 03:47:45;;;;;;;4.43;3.00;;;3.50;99.90;;;;;;5075887;28;20187;-73
2021/03/30 03:50:11;;;;;;;7.33;3.33;;;3.40;99.90;;;;;;5082413;28;20253;-74
2021/03/30 03:52:43;;;;;;;8.00;3.13;;;3.40;99.90;;;;;;5080109;28;20685;-73
2021/03/30 03:55:11;;;;;;;3.93;2.97;;;3.40;99.90;;;;;;5077726;28;20497;-72
2021/03/30 03:57:57;;;;;;;5.63;2.90;;;3.40;99.90;;;;;;5079558;28;20420;-73
2021/03/30 04:00:25;;;;;;;13.07;3.20;;;3.40;99.90;;;;;;5081287;28;20402;-73
2021/03/30 04:03:22;;;;;;;5.57;3.10;;;3.40;99.90;;;;;;5065051;28;20462;-72
2021/03/30 04:05:59;;;;;;;7.50;3.93;;;3.30;99.90;;;;;;5083958;28;20427;-73
2021/03/30 04:08:28;;;;;;;8.47;3.23;;;3.30;99.90;;;;;;5085130;28;20452;-72
2021/03/30 04:10:56;;;;;;;4.37;3.13;;;3.30;99.90;;;;;;5084726;28;20494;-72
2021/03/30 04:13:23;;;;;;;7.10;2.67;;;3.30;99.90;;;;;;5084401;28;20535;-73
2021/03/30 04:15:49;;;;;;;7.47;2.63;;;3.30;99.90;;;;;;5084472;28;20901;-72
2021/03/30 04:18:14;;;;;;;4.50;2.93;;;3.30;99.90;;;;;;5081810;28;20522;-73
2021/03/30 04:20:41;;;;;;;7.70;3.50;;;3.30;99.90;;;;;;5082441;28;20210;-75
2021/03/30 04:23:06;;;;;;;7.03;3.00;;;3.30;99.90;;;;;;5085700;28;21117;-73
2021/03/30 04:25:32;;;;;;;6.77;3.37;;;3.20;99.90;;;;;;5079529;28;20447;-72
2021/03/30 04:27:57;;;;;;;3.30;3.00;;;3.20;99.90;;;;;;5084534;28;20189;-72
2021/03/30 04:30:24;;;;;;;3.67;2.50;;;3.20;99.90;;;;;;5080335;28;20190;-72
2021/03/30 04:32:50;;;;;;;9.10;3.30;;;3.10;99.90;;;;;;5084285;28;20205;-73
2021/03/30 04:35:16;;;;;;;4.77;3.33;;;3.10;99.90;;;;;;5084743;28;20565;-72
2021/03/30 04:37:42;;;;;;;5.97;3.27;;;3.10;99.90;;;;;;5084377;28;20532;-73
2021/03/30 04:40:10;;;;;;;5.33;2.50;;;3.10;99.90;;;;;;5083135;28;20189;-71
2021/03/30 04:42:36;;;;;;;7.20;3.50;;;3.10;99.90;;;;;;5081845;28;20857;-72
2021/03/30 04:45:02;;;;;;;8.43;2.80;;;3.10;99.90;;;;;;5085010;28;20447;-74
2021/03/30 04:47:28;;;;;;;5.37;2.70;;;3.00;99.90;;;;;;5083764;28;20185;-72
2021/03/30 04:49:53;;;;;;;3.40;3.10;;;3.10;99.90;;;;;;5082486;28;20897;-72
2021/03/30 04:52:19;;;;;;;5.90;3.00;;;3.00;99.90;;;;;;5082662;28;20201;-72
2021/03/30 04:54:45;;;;;;;7.33;2.80;;;3.00;99.90;;;;;;5085297;28;20256;-72
2021/03/30 04:57:10;;;;;;;6.20;3.00;;;3.00;99.90;;;;;;5080265;28;20294;-73
2021/03/30 04:59:36;;;;;;;4.27;3.20;;;3.00;99.90;;;;;;5078206;28;20192;-72
2021/03/30 05:02:01;;;;;;;4.70;3.43;;;3.00;99.90;;;;;;5084685;28;20182;-71
2021/03/30 05:04:27;;;;;;;9.43;4.30;;;3.10;99.90;;;;;;5080181;28;20215;-70
2021/03/30 05:06:52;;;;;;;3.90;2.63;;;3.10;99.90;;;;;;5081343;28;20557;-70
2021/03/30 05:09:18;;;;;;;8.97;3.43;;;3.10;99.90;;;;;;5081589;28;20193;-70
2021/03/30 05:11:44;;;;;;;4.50;2.90;;;3.10;99.90;;;;;;5081316;28;20184;-70
2021/03/30 05:14:09;;;;;;;3.13;2.83;;;3.20;99.90;;;;;;5081782;28;20213;-72
2021/03/30 05:16:35;;;;;;;5.20;3.30;;;3.20;99.90;;;;;;5084545;28;20209;-71
2021/03/30 05:19:00;;;;;;;5.53;3.30;;;3.20;99.90;;;;;;5083316;28;20252;-71
2021/03/30 05:21:26;;;;;;;7.17;3.20;;;3.30;99.90;;;;;;5082853;28;20549;-71
2021/03/30 05:23:51;;;;;;;5.03;3.60;;;3.30;99.90;;;;;;5081711;28;20217;-71
2021/03/30 05:26:17;;;;;;;14.03;3.13;;;3.30;99.90;;;;;;5084795;28;20591;-70
2021/03/30 05:28:43;;;;;;;7.97;2.70;;;3.30;99.90;;;;;;5082280;28;20189;-71
2021/03/30 05:31:08;;;;;;;7.10;2.90;;;3.30;99.90;;;;;;5082838;28;20225;-71
2021/03/30 05:33:34;;;;;;;7.77;2.93;;;3.40;99.90;;;;;;5079935;28;20209;-71
2021/03/30 05:35:59;;;;;;;8.10;2.83;;;3.50;99.90;;;;;;5083468;28;20268;-71
2021/03/30 05:38:25;;;;;;;10.77;3.90;;;3.60;99.90;;;;;;5082868;28;20192;-70
2021/03/30 05:40:51;;;;;;;5.30;3.83;;;3.60;99.90;;;;;;5082435;28;20181;-70
2021/03/30 05:43:17;;;;;;;8.10;3.57;;;3.70;99.90;;;;;;5082889;28;20204;-71
2021/03/30 05:45:43;;;;;;;8.70;4.17;;;3.80;99.90;;;;;;5078577;28;20428;-71
2021/03/30 05:48:12;;;;;;;13.53;2.90;;;3.90;99.90;;;;;;5083004;28;20427;-70
2021/03/30 05:50:38;;;;;;;7.50;3.20;;;4.00;99.90;;;;;;5077234;28;20442;-70
2021/03/30 05:53:09;;;;;;;5.17;3.03;;;4.10;99.90;;;;;;5082146;28;20455;-71
2021/03/30 05:55:37;;;;;;;7.63;4.30;;;4.20;99.90;;;;;;5083051;28;20217;-70
2021/03/30 05:58:04;;;;;;;10.87;3.57;;;4.40;99.90;;;;;;5081117;28;20486;-71
2021/03/30 06:00:43;;;;;;;6.23;3.67;;;4.50;99.90;;;;;;5081218;28;20855;-72
2021/03/30 06:03:12;;;;;;;6.73;3.03;;;4.70;99.90;;;;;;5081071;28;20455;-71
2021/03/30 06:05:39;;;;;;;5.83;4.37;;;5.00;99.90;;;;;;5077576;28;20445;-71
2021/03/30 06:08:05;;;;;;;12.83;4.10;;;5.50;99.90;;;;;;5083625;28;20882;-72
2021/03/30 06:10:33;;;;;;;4.10;3.00;;;6.10;99.90;;;;;;5081518;28;20498;-71
2021/03/30 06:13:00;;;;;;;8.10;4.27;;;7.90;99.90;;;;;;5081987;28;20893;-73
2021/03/30 06:15:34;;;;;;;6.33;4.27;;;9.90;99.90;;;;;;5076579;28;20484;-72
2021/03/30 06:18:15;;;;;;;8.20;4.47;;;11.90;99.90;;;;;;5081444;28;20422;-71
2021/03/30 06:20:40;;;;;;;12.87;4.20;;;13.40;99.90;;;;;;5081111;28;20499;-71
2021/03/30 06:23:07;;;;;;;6.50;4.20;;;14.30;99.90;;;;;;5082448;28;20484;-71
2021/03/30 06:25:54;;;;;;;7.70;4.37;;;15.80;99.90;;;;;;5083238;28;20192;-72
2021/03/30 06:28:28;;;;;;;8.03;4.33;;;17.20;99.90;;;;;;5082095;28;20418;-72
2021/03/30 06:31:13;;;;;;;11.17;5.63;;;18.00;99.90;;;;;;5077206;28;20499;-71
2021/03/30 06:33:55;;;;;;;14.50;6.77;;;18.60;99.90;;;;;;5079315;28;20450;-70
2021/03/30 06:36:21;;;;;;;11.67;5.60;;;19.60;99.90;;;;;;5080792;28;20473;-70
2021/03/30 06:38:54;;;;;;;10.70;5.40;;;19.80;99.70;;;;;;5081595;28;20453;-71
2021/03/30 06:41:39;;;;;;;7.03;4.70;;;20.40;98.10;;;;;;5082238;28;20467;-72
2021/03/30 06:44:29;;;;;;;7.90;5.90;;;20.70;97.00;;;;;;5079186;28;20459;-73
2021/03/30 06:47:14;;;;;;;16.67;5.93;;;21.10;97.00;;;;;;5079790;28;20449;-72
2021/03/30 06:50:01;;;;;;;10.20;6.43;;;20.90;95.20;;;;;;5083075;28;20827;-72
2021/03/30 06:52:33;;;;;;;10.13;5.20;;;20.80;95.00;;;;;;5084161;28;20537;-72
2021/03/30 06:55:07;;;;;;;12.97;5.37;;;21.00;95.00;;;;;;5086447;28;20440;-72
2021/03/30 06:57:47;;;;;;;8.80;5.77;;;21.50;94.10;;;;;;5079878;28;20421;-72
2021/03/30 07:00:25;;;;;;;11.53;6.40;;;21.00;93.50;;;;;;5088146;28;20797;-72
2021/03/30 07:02:53;;;;;;;10.20;5.83;;;20.50;93.00;;;;;;5076305;28;20450;-72
2021/03/30 07:05:38;;;;;;;11.40;5.67;;;19.60;94.10;;;;;;5082482;28;20441;-73
2021/03/30 07:08:06;;;;;;;8.70;5.50;;;19.10;94.50;;;;;;5082237;28;20864;-73
2021/03/30 07:10:34;;;;;;;17.30;6.27;;;18.40;95.80;;;;;;5081034;28;20521;-75
2021/03/30 07:13:00;;;;;;;10.30;6.30;;;18.00;96.00;;;;;;5081281;28;21149;-74
2021/03/30 07:15:26;;;;;;;17.77;6.23;;;17.70;95.80;;;;;;5079990;28;20453;-73
2021/03/30 07:18:00;;;;;;;14.77;6.40;;;17.50;96.70;;;;;;5080506;28;20772;-73
2021/03/30 07:20:26;;;;;;;14.50;6.57;;;17.40;97.10;;;;;;5081824;28;20434;-74
2021/03/30 07:22:52;;;;;;;9.33;6.53;;;17.40;97.30;;;;;;5080005;28;20517;-73
2021/03/30 07:25:23;;;;;;;13.50;5.90;;;17.30;96.90;;;;;;5082244;28;20468;-74
2021/03/30 07:28:07;;;;;;;14.10;6.77;;;17.20;96.60;;;;;;5078704;28;20448;-74
2021/03/30 07:30:36;;;;;;;16.17;6.20;;;17.20;97.40;;;;;;5080746;28;20940;-73
2021/03/30 07:33:14;;;;;;;12.13;7.20;;;17.50;97.70;;;;;;5081283;28;20447;-74
2021/03/30 07:35:40;;;;;;;9.60;5.83;;;17.50;96.60;;;;;;5079349;28;20469;-72
2021/03/30 07:38:15;;;;;;;18.10;7.63;;;17.60;98.00;;;;;;5080595;28;20526;-73
2021/03/30 07:40:42;;;;;;;11.93;6.80;;;17.70;96.40;;;;;;5079061;28;20418;-72
2021/03/30 07:43:09;;;;;;;16.83;6.07;;;17.90;95.90;;;;;;5078127;28;20439;-72
2021/03/30 07:45:39;;;;;;;11.37;6.43;;;18.10;96.10;;;;;;5080680;28;20911;-73
2021/03/30 07:48:06;;;;;;;23.17;6.60;;;18.30;97.70;;;;;;5082087;28;20444;-72
2021/03/30 07:51:21;;;;;;;14.27;7.33;;;18.50;96.90;;;;;;5073645;28;20413;-73
2021/03/30 07:53:53;;;;;;;8.73;7.27;;;18.20;95.40;;;;;;5079253;28;20469;-73
2021/03/30 07:56:22;;;;;;;20.03;7.50;;;18.60;95.50;;;;;;5079902;28;20976;-73
2021/03/30 07:58:47;;;;;;;17.70;7.20;;;18.60;96.50;;;;;;5080992;28;20462;-74
2021/03/30 08:01:14;;;;;;;17.40;7.57;;;18.50;95.80;;;;;;5081388;28;20940;-73
2021/03/30 08:03:42;;;;;;;10.30;6.87;;;18.70;96.00;;;;;;5080089;28;20203;-73
2021/03/30 08:06:07;;;;;;;12.80;7.33;;;18.80;95.70;;;;;;5079788;28;20819;-73
2021/03/30 08:08:45;;;;;;;23.63;7.03;;;18.80;95.40;;;;;;5082221;28;20456;-74
2021/03/30 08:11:11;;;;;;;14.20;7.20;;;18.80;97.40;;;;;;5081204;28;20180;-73
2021/03/30 08:13:54;;;;;;;20.43;7.70;;;18.90;95.60;;;;;;5076932;28;20442;-71
2021/03/30 08:16:21;;;;;;;26.10;7.47;;;19.20;96.40;;;;;;5080632;28;20485;-73
2021/03/30 08:18:48;;;;;;;17.80;6.80;;;19.30;94.80;;;;;;5081571;28;20436;-73
2021/03/30 08:21:18;;;;;;;12.50;6.50;;;19.50;94.60;;;;;;5077465;28;20437;-72
2021/03/30 08:23:52;;;;;;;10.83;7.70;;;19.40;95.10;;;;;;5078258;28;20537;-73
2021/03/30 08:26:29;;;;;;;13.43;7.80;;;19.70;94.90;;;;;;5076269;28;20948;-74
2021/03/30 08:29:07;;;;;;;11.00;6.60;;;19.80;94.80;;;;;;5078741;28;20423;-74
2021/03/30 08:31:35;;;;;;;15.83;7.20;;;20.00;94.90;;;;;;5080636;28;20449;-73
2021/03/30 08:34:06;;;;;;;10.80;6.63;;;20.10;93.90;;;;;;5080031;28;20483;-73
2021/03/30 08:36:52;;;;;;;11.00;7.13;;;20.30;95.00;;;;;;5079673;28;20466;-73
2021/03/30 08:39:17;;;;;;;8.77;6.27;;;20.40;93.50;;;;;;5078171;28;20526;-73
2021/03/30 08:41:43;;;;;;;11.83;6.83;;;20.50;93.70;;;;;;5078277;28;20861;-72
2021/03/30 08:44:41;;;;;;;12.73;6.60;;;20.50;94.00;;;;;;5076441;28;20200;-72
2021/03/30 08:47:08;;;;;;;16.70;7.07;;;20.80;93.10;;;;;;5081042;28;20183;-72
2021/03/30 08:49:44;;;;;;;9.10;6.70;;;20.80;93.40;;;;;;5083894;28;20468;-74
2021/03/30 08:52:14;;;;;;;23.23;7.27;;;20.70;93.60;;;;;;5081932;28;20485;-71
2021/03/30 08:54:53;;;;;;;9.67;6.40;;;21.00;93.10;;;;;;5085667;28;20485;-73
2021/03/30 08:57:30;;;;;;;10.10;6.20;;;20.70;93.20;;;;;;5081498;28;20466;-73
2021/03/30 08:59:57;;;;;;;13.03;6.90;;;21.10;93.20;;;;;;5083041;28;20434;-74
2021/03/30 09:02:24;;;;;;;16.60;6.83;;;21.40;93.20;;;;;;5083539;28;20450;-73
2021/03/30 09:04:50;;;;;;;9.50;5.93;;;21.60;92.30;;;;;;5082578;28;20462;-73
2021/03/30 09:07:16;;;;;;;12.83;7.13;;;21.60;92.10;;;;;;5083677;28;20469;-73
2021/03/30 09:09:42;;;;;;;9.27;5.40;;;21.80;92.80;;;;;;5080591;28;20940;-73
2021/03/30 09:12:27;;;;;;;7.77;6.23;;;21.90;92.00;;;;;;5082767;28;20180;-74
2021/03/30 09:15:00;;;;;;;14.10;6.70;;;22.30;92.00;;;;;;5084936;28;20188;-73
2021/03/30 09:17:28;;;;;;;12.40;6.90;;;22.30;91.20;;;;;;5080694;28;20441;-73
2021/03/30 09:19:53;;;;;;;9.17;7.03;;;22.60;91.20;;;;;;5083013;28;20446;-73
2021/03/30 09:22:33;;;;;;;10.80;6.00;;;23.00;92.30;;;;;;5083548;28;20479;-72
2021/03/30 09:27:46;;;;;;;12.80;5.90;;;23.40;90.20;;;;;;5081092;28;20841;-72
2021/03/30 09:30:17;;;;;;;11.63;5.93;;;23.60;90.70;;;;;;5082024;28;20433;-74
2021/03/30 09:32:44;;;;;;;11.73;6.47;;;23.70;90.80;;;;;;5083970;28;20430;-73
2021/03/30 09:35:20;;;;;;;14.57;5.80;;;24.00;89.30;;;;;;5077667;28;21020;-73
2021/03/30 09:37:57;;;;;;;11.37;6.00;;;24.00;87.90;;;;;;5080408;28;20425;-73
2021/03/30 09:40:29;;;;;;;10.30;5.70;;;24.40;85.90;;;;;;5083967;28;20437;-73
2021/03/30 09:42:55;;;;;;;9.83;5.40;;;24.50;84.40;;;;;;5082215;28;20453;-73
2021/03/30 09:45:31;;;;;;;9.10;5.67;;;24.50;83.30;;;;;;5082999;28;20438;-74
2021/03/30 09:47:59;;;;;;;8.27;5.10;;;24.90;83.20;;;;;;5082221;28;20202;-74
2021/03/30 09:50:26;;;;;;;7.80;5.07;;;24.90;82.60;;;;;;5083332;28;20539;-73
2021/03/30 09:52:52;;;;;;;6.80;4.63;;;25.10;81.90;;;;;;5082695;28;20532;-73
2021/03/30 09:55:29;;;;;;;15.77;6.00;;;25.20;83.00;;;;;;5081151;28;20556;-73
2021/03/30 09:58:02;;;;;;;21.37;5.70;;;25.50;82.80;;;;;;5081905;28;20228;-73
2021/03/30 10:00:30;;;;;;;6.80;5.07;;;25.50;81.00;;;;;;5081031;28;21050;-73
2021/03/30 10:02:57;;;;;;;11.43;6.23;;;25.50;79.10;;;;;;5078763;28;20525;-73
2021/03/30 10:05:22;;;;;;;13.23;6.80;;;25.50;77.70;;;;;;5080022;28;20446;-73
2021/03/30 10:07:48;;;;;;;7.23;5.50;;;25.50;77.20;;;;;;5080989;28;20921;-75
2021/03/30 10:10:15;;;;;;;12.60;5.70;;;25.70;76.90;;;;;;5082720;28;20943;-73
2021/03/30 10:12:49;;;;;;;15.13;6.90;;;26.10;77.90;;;;;;5083813;28;20238;-72
2021/03/30 10:15:15;;;;;;;11.33;7.07;;;26.30;74.60;;;;;;5078161;28;20446;-73
2021/03/30 10:17:41;;;;;;;10.70;5.80;;;26.20;72.90;;;;;;5081308;28;20472;-73
2021/03/30 10:20:13;;;;;;;10.10;6.13;;;25.80;73.30;;;;;;5080695;28;20185;-74
2021/03/30 10:22:46;;;;;;;7.20;5.90;;;26.20;71.70;;;;;;5080653;28;20524;-72
2021/03/30 10:25:14;;;;;;;9.50;6.23;;;26.10;71.50;;;;;;5080359;28;20913;-73
2021/03/30 10:27:53;;;;;;;8.43;5.80;;;26.40;72.90;;;;;;5075551;28;20434;-74
2021/03/30 10:30:32;;;;;;;12.53;6.30;;;26.40;68.60;;;;;;5078335;28;20434;-73
2021/03/30 10:33:01;;;;;;;13.63;6.07;;;26.50;68.00;;;;;;5081097;28;20535;-74
2021/03/30 10:35:30;;;;;;;6.73;5.13;;;26.40;67.30;;;;;;5081999;28;20458;-73
2021/03/30 10:37:56;;;;;;;18.63;5.00;;;26.60;66.40;;;;;;5080491;28;20442;-73
2021/03/30 10:40:29;;;;;;;8.20;4.60;;;26.80;67.20;;;;;;5080786;28;20430;-72
2021/03/30 10:42:55;;;;;;;5.00;4.30;;;26.90;69.70;;;;;;5078951;28;20469;-73
2021/03/30 10:45:29;;;;;;;8.33;4.60;;;27.30;66.80;;;;;;5080964;28;20858;-73
2021/03/30 10:47:59;;;;;;;5.23;3.87;;;27.50;61.10;;;;;;5082103;28;20203;-73
2021/03/30 10:50:25;;;;;;;8.57;4.30;;;27.10;63.00;;;;;;5082328;28;20444;-73
2021/03/30 10:52:51;;;;;;;5.23;4.73;;;27.10;62.00;;;;;;5080766;28;20474;-73
2021/03/30 10:55:18;;;;;;;4.80;4.13;;;27.10;62.90;;;;;;5082952;28;20600;-73
2021/03/30 10:57:48;;;;;;;4.90;4.50;;;27.10;60.80;;;;;;5078078;28;20430;-73
2021/03/30 11:00:16;;;;;;;6.10;4.10;;;26.80;61.70;;;;;;5075977;28;20457;-73
2021/03/30 11:02:41;;;;;;;6.87;4.57;;;26.70;61.90;;;;;;5080668;28;20458;-73
2021/03/30 11:05:09;;;;;;;5.77;5.00;;;26.60;60.20;;;;;;5077356;28;20461;-72
2021/03/30 11:07:35;;;;;;;9.30;5.00;;;27.10;63.40;;;;;;5079800;28;20574;-72
2021/03/30 11:10:04;;;;;;;5.53;5.03;;;27.30;60.00;;;;;;5080687;28;20443;-72
2021/03/30 11:12:30;;;;;;;14.33;4.30;;;26.80;60.30;;;;;;5081359;28;20203;-74
2021/03/30 11:14:55;;;;;;;4.70;4.07;;;26.90;60.50;;;;;;5082581;28;20441;-73
2021/03/30 11:17:21;;;;;;;5.23;3.73;;;27.10;61.00;;;;;;5081634;28;20572;-72
2021/03/30 11:19:46;;;;;;;4.83;3.60;;;27.20;62.80;;;;;;5082338;28;20186;-73
2021/03/30 11:22:12;;;;;;;6.93;4.37;;;27.50;60.40;;;;;;5075243;28;20204;-72
2021/03/30 11:24:39;;;;;;;4.30;3.90;;;27.50;59.10;;;;;;5080146;28;20438;-72
2021/03/30 11:27:06;;;;;;;5.23;4.73;;;27.00;58.20;;;;;;5081860;28;20190;-72
2021/03/30 11:32:31;;;;;;;4.10;3.57;;;26.60;59.00;;;;;;5076132;28;20453;-73
2021/03/30 11:35:00;;;;;;;4.93;3.90;;;26.40;59.10;;;;;;5080320;28;20841;-73
2021/03/30 11:39:51;;;;;;;4.30;3.33;;;26.90;57.90;;;;;;5080579;28;20515;-74
2021/03/30 11:42:17;;;;;;;6.10;3.57;;;26.50;58.10;;;;;;5079790;28;20227;-73
2021/03/30 11:44:43;;;;;;;6.03;4.00;;;26.40;59.00;;;;;;5080637;28;20185;-73
2021/03/30 11:47:08;;;;;;;6.40;4.23;;;26.20;58.20;;;;;;5079371;28;20267;-73
2021/03/30 11:49:35;;;;;;;6.83;3.97;;;26.00;58.20;;;;;;5082081;28;20649;-74
2021/03/30 11:52:01;;;;;;;7.87;3.80;;;26.10;58.40;;;;;;5079967;28;20188;-72
2021/03/30 11:54:28;;;;;;;8.37;3.97;;;25.90;58.10;;;;;;5081119;28;20453;-73
2021/03/30 11:56:53;;;;;;;7.73;4.17;;;26.00;60.10;;;;;;5080926;28;20487;-73
2021/03/30 11:59:19;;;;;;;5.73;3.43;;;26.10;59.80;;;;;;5081651;28;20963;-71
2021/03/30 12:01:44;;;;;;;6.73;4.60;;;25.90;59.10;;;;;;5080157;28;20195;-72
2021/03/30 12:04:10;;;;;;;5.97;4.47;;;25.80;58.50;;;;;;5080620;28;20232;-73
2021/03/30 12:06:36;;;;;;;9.63;4.33;;;25.40;57.80;;;;;;5079274;28;20715;-73
2021/03/30 12:09:02;;;;;;;5.37;3.80;;;25.40;58.80;;;;;;5080297;28;20194;-73
2021/03/30 12:11:29;;;;;;;5.90;4.33;;;25.20;58.40;;;;;;5081039;28;20176;-73
2021/03/30 12:13:55;;;;;;;4.70;3.43;;;25.30;60.10;;;;;;5077005;28;21065;-72
2021/03/30 12:16:20;;;;;;;5.73;4.33;;;25.20;58.50;;;;;;5078382;28;21011;-73
2021/03/30 12:18:46;;;;;;;4.37;3.97;;;25.20;59.20;;;;;;5080675;28;20473;-73
2021/03/30 12:21:11;;;;;;;5.23;4.20;;;25.30;58.00;;;;;;5083235;28;20180;-72
2021/03/30 12:23:37;;;;;;;8.00;4.17;;;25.30;59.30;;;;;;5084276;28;20222;-73
2021/03/30 12:26:02;;;;;;;4.67;3.93;;;25.20;60.40;;;;;;5084789;28;20190;-74
2021/03/30 12:28:28;;;;;;;4.33;3.70;;;25.40;58.60;;;;;;5082702;28;20266;-73
2021/03/30 12:30:53;;;;;;;14.47;3.80;;;25.50;59.50;;;;;;5080204;28;20240;-73
2021/03/30 12:33:19;;;;;;;8.50;3.03;;;25.40;58.00;;;;;;5083103;28;20197;-73
2021/03/30 12:35:45;;;;;;;11.73;3.00;;;25.40;57.60;;;;;;5086051;28;20202;-73
2021/03/30 12:38:11;;;;;;;3.33;2.87;;;25.30;54.90;;;;;;5082049;28;20204;-73
2021/03/30 12:40:37;;;;;;;3.80;2.57;;;25.20;53.40;;;;;;5084899;28;20186;-74
2021/03/30 12:43:04;;;;;;;4.07;2.80;;;25.00;54.20;;;;;;5081929;28;20499;-73
2021/03/30 12:45:33;;;;;;;4.90;3.30;;;25.10;54.80;;;;;;5081565;28;21503;-73
2021/03/30 12:47:59;;;;;;;5.40;3.73;;;25.10;54.20;;;;;;5082713;28;20804;-73
2021/03/30 12:50:27;;;;;;;5.73;3.60;;;24.90;55.30;;;;;;5082880;28;20438;-73
2021/03/30 12:52:52;;;;;;;8.50;3.70;;;24.80;54.60;;;;;;5082759;28;20441;-72
2021/03/30 12:55:18;;;;;;;7.73;4.00;;;24.70;55.00;;;;;;5082207;28;20470;-73
2021/03/30 12:57:44;;;;;;;5.07;3.60;;;24.80;56.10;;;;;;5083184;28;20222;-74
2021/03/30 13:00:10;;;;;;;6.60;4.10;;;24.90;57.50;;;;;;5083668;28;20261;-73
2021/03/30 13:02:36;;;;;;;5.10;3.63;;;24.90;57.00;;;;;;5084578;28;20196;-73
2021/03/30 13:05:02;;;;;;;9.83;4.63;;;24.90;57.70;;;;;;5082198;28;20439;-73
2021/03/30 13:07:28;;;;;;;3.83;3.43;;;24.70;55.60;;;;;;5081761;28;20193;-72